createdAt,value
2019-01-26T00:02:25.326Z,76.07
2019-01-26T00:08:31.399Z,76.20
2019-01-26T00:14:37.336Z,76.29
2019-01-26T00:20:43.268Z,76.29
2019-01-26T00:26:49.219Z,76.42
2019-01-26T00:32:55.135Z,76.54
2019-01-26T00:39:00.854Z,76.63
2019-01-26T00:45:07.697Z,76.67
2019-01-26T00:51:17.238Z,76.94
2019-01-26T00:57:21.102Z,77.21
2019-01-26T01:03:27.030Z,77.30
2019-01-26T01:09:33.033Z,77.50
2019-01-26T01:15:38.857Z,77.64
2019-01-26T01:21:45.184Z,77.76
2019-01-26T01:27:51.073Z,77.77
2019-01-26T01:33:56.874Z,77.78
2019-01-26T01:40:02.841Z,77.73
2019-01-26T01:46:08.720Z,77.70
2019-01-26T01:52:14.748Z,77.68
2019-01-26T01:58:20.788Z,77.63
2019-01-26T02:04:26.526Z,77.49
2019-01-26T02:10:32.286Z,77.47
2019-01-26T02:16:38.383Z,77.45
2019-01-26T02:22:44.260Z,77.35
2019-01-26T02:28:50.490Z,77.26
2019-01-26T02:34:56.384Z,77.29
2019-01-26T02:41:02.448Z,77.29
2019-01-26T02:47:08.295Z,77.31
2019-01-26T02:53:14.276Z,77.40
2019-01-26T02:59:20.265Z,77.39
2019-01-26T03:05:26.558Z,77.48
2019-01-26T03:11:32.322Z,77.44
2019-01-26T03:17:38.231Z,77.47
2019-01-26T03:23:43.963Z,77.44
2019-01-26T03:29:49.675Z,77.40
2019-01-26T03:35:55.358Z,77.44
2019-01-26T03:42:01.326Z,77.45
2019-01-26T03:48:07.625Z,77.52
2019-01-26T03:54:13.847Z,77.55
2019-01-26T04:00:26.178Z,77.66
2019-01-26T04:06:34.456Z,77.61
2019-01-26T04:12:40.453Z,77.59
2019-01-26T04:18:46.328Z,77.65
2019-01-26T04:24:52.767Z,77.60
2019-01-26T04:30:58.541Z,77.67
2019-01-26T04:37:04.318Z,77.77
2019-01-26T04:43:10.014Z,77.79
2019-01-26T04:49:15.727Z,77.80
2019-01-26T04:55:22.196Z,77.98
2019-01-26T05:01:28.089Z,78.10
2019-01-26T05:07:33.936Z,78.09
2019-01-26T05:13:39.764Z,78.10
2019-01-26T05:19:45.635Z,78.14
2019-01-26T05:25:51.371Z,78.11
2019-01-26T05:31:57.330Z,77.99
2019-01-26T05:38:05.959Z,78.04
2019-01-26T05:44:11.090Z,78.09
2019-01-26T05:50:28.525Z,78.08
2019-01-26T05:56:35.760Z,78.08
2019-01-26T06:02:41.665Z,78.07
2019-01-26T06:08:49.529Z,77.99
2019-01-26T06:14:55.338Z,77.95
2019-01-26T06:21:05.092Z,77.97
2019-01-26T06:27:12.673Z,77.92
2019-01-26T06:33:18.414Z,77.92
2019-01-26T06:39:24.373Z,77.79
2019-01-26T06:45:32.851Z,77.66
2019-01-26T06:51:40.833Z,77.60
2019-01-26T06:57:49.334Z,77.60
2019-01-26T07:03:55.267Z,77.42
2019-01-26T07:10:01.390Z,77.25
2019-01-26T07:16:07.509Z,77.18
2019-01-26T07:22:14.664Z,76.99
2019-01-26T07:28:27.120Z,76.76
2019-01-26T07:34:32.963Z,76.67
2019-01-26T07:40:43.221Z,76.59
2019-01-26T07:46:48.994Z,76.50
2019-01-26T07:52:58.113Z,76.50
2019-01-26T07:59:04.273Z,76.48
2019-01-26T08:05:11.975Z,76.46
2019-01-26T08:11:18.081Z,76.37
2019-01-26T08:17:24.121Z,76.43
2019-01-26T08:23:30.222Z,76.37
2019-01-26T08:29:36.011Z,76.42
2019-01-26T08:35:42.031Z,76.40
2019-01-26T08:41:47.819Z,76.47
2019-01-26T08:47:53.681Z,76.56
2019-01-26T08:53:59.543Z,76.59
2019-01-26T09:00:06.662Z,76.85
2019-01-26T09:06:16.874Z,76.99
2019-01-26T09:12:22.835Z,77.10
2019-01-26T09:18:28.701Z,77.16
2019-01-26T09:24:34.442Z,77.22
2019-01-26T09:30:40.435Z,77.27
2019-01-26T09:36:46.289Z,77.22
2019-01-26T09:42:52.502Z,77.21
2019-01-26T09:48:58.365Z,77.26
2019-01-26T09:55:05.002Z,77.17
2019-01-26T10:01:10.972Z,76.90
2019-01-26T10:07:16.697Z,76.76
2019-01-26T10:13:22.558Z,76.57
2019-01-26T10:19:28.389Z,76.43
2019-01-26T10:25:34.212Z,76.18
2019-01-26T10:31:40.052Z,76.00
2019-01-26T10:37:46.069Z,75.85
2019-01-26T10:43:53.133Z,75.78
2019-01-26T10:49:58.876Z,75.50
2019-01-26T10:56:04.739Z,75.31
2019-01-26T11:02:11.034Z,75.14
2019-01-26T11:08:16.905Z,75.04
2019-01-26T11:14:23.009Z,74.78
2019-01-26T11:20:28.819Z,74.47
2019-01-26T11:26:34.999Z,74.16
2019-01-26T11:32:42.235Z,73.99
2019-01-26T11:38:48.433Z,73.75
2019-01-26T11:45:21.931Z,73.27
2019-01-26T11:51:45.403Z,72.70
2019-01-26T11:57:51.824Z,72.35
2019-01-26T12:04:11.339Z,72.15
2019-01-26T12:10:17.053Z,71.81
2019-01-26T12:16:26.967Z,71.41
2019-01-26T12:22:30.697Z,71.07
2019-01-26T12:28:39.738Z,70.88
2019-01-26T12:34:45.510Z,70.64
2019-01-26T12:40:51.299Z,70.18
2019-01-26T12:46:57.148Z,70.05
2019-01-26T12:53:02.954Z,69.83
2019-01-26T12:59:08.804Z,69.74
2019-01-26T13:05:15.213Z,70.03
2019-01-26T13:11:28.056Z,69.94
2019-01-26T13:17:36.038Z,69.70
2019-01-26T13:23:42.960Z,69.55
2019-01-26T13:29:48.759Z,69.47
2019-01-26T13:35:54.701Z,69.32
2019-01-26T13:42:00.671Z,69.59
2019-01-26T13:48:06.877Z,70.04
2019-01-26T13:54:13.842Z,70.74
2019-01-26T14:00:26.326Z,70.83
2019-01-26T14:06:32.076Z,70.55
2019-01-26T14:12:37.859Z,70.49
2019-01-26T14:18:44.976Z,70.33
2019-01-26T14:24:53.924Z,70.30
2019-01-26T14:31:06.210Z,70.34
2019-01-26T14:37:13.395Z,70.61
2019-01-26T14:43:19.275Z,70.51
2019-01-26T14:49:25.036Z,70.47
2019-01-26T14:55:33.508Z,70.40
2019-01-26T15:01:38.394Z,70.45
2019-01-26T15:07:46.473Z,70.80
2019-01-26T15:13:52.216Z,71.34
2019-01-26T15:19:57.997Z,71.74
2019-01-26T15:26:03.870Z,71.82
2019-01-26T15:32:12.697Z,71.98
2019-01-26T15:38:21.031Z,72.08
2019-01-26T15:44:26.838Z,72.09
2019-01-26T15:50:32.618Z,72.05
2019-01-26T15:56:38.357Z,71.90
2019-01-26T16:02:45.793Z,71.92
2019-01-26T16:08:52.251Z,71.87
2019-01-26T16:14:58.144Z,71.78
2019-01-26T16:21:05.835Z,71.77
2019-01-26T16:27:14.118Z,71.66
2019-01-26T16:33:21.599Z,71.76
2019-01-26T16:39:27.376Z,72.01
2019-01-26T16:45:40.872Z,72.38
2019-01-26T16:51:48.391Z,72.67
2019-01-26T16:57:57.317Z,72.80
2019-01-26T17:04:03.462Z,72.96
2019-01-26T17:10:12.322Z,73.18
2019-01-26T17:16:19.787Z,73.32
2019-01-26T17:22:31.368Z,73.21
2019-01-26T17:28:37.264Z,73.12
2019-01-26T17:34:42.993Z,73.24
2019-01-26T17:40:54.214Z,73.21
2019-01-26T17:46:56.363Z,73.00
2019-01-26T17:53:02.136Z,72.88
2019-01-26T17:59:12.497Z,72.98
2019-01-26T18:05:18.370Z,72.83
2019-01-26T18:11:24.637Z,72.78
2019-01-26T18:17:30.501Z,72.48
2019-01-26T18:23:36.416Z,72.51
2019-01-26T18:29:42.290Z,72.83
2019-01-26T18:35:48.012Z,73.47
2019-01-26T18:41:53.805Z,73.75
2019-01-26T18:47:59.672Z,73.79
2019-01-26T18:54:05.660Z,73.72
2019-01-26T19:00:26.664Z,73.43
2019-01-26T19:06:34.979Z,73.16
2019-01-26T19:12:41.142Z,72.79
2019-01-26T19:18:49.235Z,72.68
2019-01-26T19:24:55.105Z,72.45
2019-01-26T19:31:00.920Z,72.15
2019-01-26T19:37:09.381Z,71.74
2019-01-26T19:43:14.440Z,71.17
2019-01-26T19:49:20.270Z,70.80
2019-01-26T19:55:26.460Z,70.50
2019-01-26T20:01:32.831Z,70.08
2019-01-26T20:07:38.745Z,69.85
2019-01-26T20:13:44.516Z,69.54
2019-01-26T20:19:50.219Z,69.25
2019-01-26T20:25:56.034Z,69.14
2019-01-26T20:32:01.910Z,69.01
2019-01-26T20:38:07.677Z,68.78
2019-01-26T20:44:13.422Z,68.86
2019-01-26T20:50:19.223Z,68.91
2019-01-26T20:56:25.082Z,69.03
2019-01-26T21:02:31.000Z,69.00
2019-01-26T21:08:36.780Z,68.89
2019-01-26T21:14:42.745Z,68.88
2019-01-26T21:20:54.776Z,68.65
2019-01-26T21:27:00.714Z,68.67
2019-01-26T21:33:07.652Z,68.68
2019-01-26T21:39:16.635Z,68.47
2019-01-26T21:45:24.545Z,68.53
2019-01-26T21:51:38.924Z,68.23
2019-01-26T21:57:41.128Z,68.03
2019-01-26T22:03:50.040Z,67.76
2019-01-26T22:09:55.892Z,67.27
2019-01-26T22:16:02.211Z,67.61
2019-01-26T22:22:08.121Z,67.81
2019-01-26T22:28:16.565Z,67.80
2019-01-26T22:34:25.445Z,67.87
2019-01-26T22:40:39.490Z,67.74
2019-01-26T22:46:45.460Z,67.77
2019-01-26T22:52:51.313Z,67.68
2019-01-26T22:58:57.165Z,67.78
2019-01-26T23:05:44.805Z,67.97
2019-01-26T23:12:22.276Z,68.04
2019-01-26T23:18:56.880Z,68.35
2019-01-26T23:25:33.112Z,68.65
2019-01-26T23:31:39.009Z,68.87
2019-01-26T23:37:45.037Z,68.97
2019-01-26T23:43:50.953Z,68.89
2019-01-26T23:49:56.675Z,68.97
2019-01-26T23:56:02.791Z,69.14
